createdAt,value
2023-03-26T00:00:00.868Z,51.212074
2023-03-26T00:01:00.858Z,51.211998
2023-03-26T00:02:00.988Z,51.212112
2023-03-26T00:03:00.877Z,51.212044
2023-03-26T00:04:00.849Z,51.212166
2023-03-26T00:05:00.802Z,51.212090
2023-03-26T00:06:00.837Z,51.212154
2023-03-26T00:07:00.816Z,51.212154
2023-03-26T00:08:00.798Z,51.212116
2023-03-26T00:09:00.788Z,51.212212
2023-03-26T00:10:00.797Z,51.212112
2023-03-26T00:11:01.249Z,51.212097
2023-03-26T00:12:01.784Z,51.212101
2023-03-26T00:13:00.778Z,51.212177
2023-03-26T00:14:00.786Z,51.212204
2023-03-26T00:15:00.756Z,51.212204
2023-03-26T00:16:00.771Z,51.212162
2023-03-26T00:17:00.768Z,51.212116
2023-03-26T00:18:00.832Z,51.212139
2023-03-26T00:19:00.754Z,51.212189
2023-03-26T00:20:00.733Z,51.212288
2023-03-26T00:21:00.719Z,51.212250
2023-03-26T00:22:00.744Z,51.212204
2023-03-26T00:23:00.692Z,51.212181
2023-03-26T00:24:00.710Z,51.212208
2023-03-26T00:25:00.713Z,51.212170
2023-03-26T00:26:00.691Z,51.212154
2023-03-26T00:27:00.708Z,51.212265
2023-03-26T00:28:00.711Z,51.212196
2023-03-26T00:29:00.765Z,51.212273
2023-03-26T00:30:00.682Z,51.212135
2023-03-26T00:31:00.718Z,51.212101
2023-03-26T00:32:00.650Z,51.212162
2023-03-26T00:33:00.684Z,51.212234
2023-03-26T00:34:00.674Z,51.212120
2023-03-26T00:35:00.653Z,51.212330
2023-03-26T00:36:02.571Z,51.212345
2023-03-26T00:37:00.651Z,51.212280
2023-03-26T00:38:00.618Z,51.212280
2023-03-26T00:39:00.611Z,51.212215
2023-03-26T00:40:00.928Z,51.212021
2023-03-26T00:41:00.616Z,51.212090
2023-03-26T00:42:00.622Z,51.212063
2023-03-26T00:43:00.590Z,51.212067
2023-03-26T00:44:00.619Z,51.212208
2023-03-26T00:45:00.634Z,51.212170
2023-03-26T00:46:00.655Z,51.212284
2023-03-26T00:47:00.572Z,51.212132
2023-03-26T00:48:02.841Z,51.212101
2023-03-26T00:49:01.581Z,51.212097
2023-03-26T00:50:00.545Z,51.212082
2023-03-26T00:51:00.592Z,51.212074
2023-03-26T00:52:00.567Z,51.212147
2023-03-26T00:53:00.556Z,51.212200
2023-03-26T00:54:00.559Z,51.212219
2023-03-26T00:55:00.558Z,51.212151
2023-03-26T00:56:00.626Z,51.212185
2023-03-26T00:57:00.530Z,51.212112
2023-03-26T00:58:00.520Z,51.212147
2023-03-26T00:59:00.520Z,51.212200
2023-03-26T01:00:00.533Z,51.212162
2023-03-26T01:01:00.507Z,51.212234
2023-03-26T01:02:00.564Z,51.212234
2023-03-26T01:03:00.593Z,51.212170
2023-03-26T01:04:07.584Z,51.212322
2023-03-26T01:05:02.530Z,51.212364
2023-03-26T01:06:00.448Z,51.212257
2023-03-26T01:07:00.456Z,51.212215
2023-03-26T01:08:00.479Z,51.212246
2023-03-26T01:09:00.552Z,51.212204
2023-03-26T01:10:00.431Z,51.212223
2023-03-26T01:11:00.438Z,51.212311
2023-03-26T01:12:01.436Z,51.212399
2023-03-26T01:13:00.435Z,51.212269
2023-03-26T01:14:00.428Z,51.212257
2023-03-26T01:15:00.418Z,51.212231
2023-03-26T01:16:00.440Z,51.212296
2023-03-26T01:17:00.414Z,51.212162
2023-03-26T01:18:00.442Z,51.212124
2023-03-26T01:19:00.383Z,51.212090
2023-03-26T01:20:00.411Z,51.212124
2023-03-26T01:21:00.371Z,51.212193
2023-03-26T01:22:00.369Z,51.212193
2023-03-26T01:23:00.419Z,51.212139
2023-03-26T01:24:00.363Z,51.212128
2023-03-26T01:25:00.359Z,51.212139
2023-03-26T01:26:00.356Z,51.212051
2023-03-26T01:27:00.355Z,51.211933
2023-03-26T01:28:00.361Z,51.212032
2023-03-26T01:29:00.356Z,51.212051
2023-03-26T01:30:00.312Z,51.212059
2023-03-26T01:31:00.308Z,51.212112
2023-03-26T01:32:00.314Z,51.212105
2023-03-26T01:33:00.375Z,51.211987
2023-03-26T01:34:00.286Z,51.211960
2023-03-26T01:35:00.303Z,51.211956
2023-03-26T01:36:00.344Z,51.212025
2023-03-26T01:37:00.282Z,51.212101
2023-03-26T01:38:00.310Z,51.212139
2023-03-26T01:39:00.543Z,51.212135
2023-03-26T01:40:00.307Z,51.212120
2023-03-26T01:41:00.280Z,51.212116
2023-03-26T01:42:00.243Z,51.212151
2023-03-26T01:43:00.247Z,51.212128
2023-03-26T01:44:00.350Z,51.212143
2023-03-26T01:45:00.240Z,51.212151
2023-03-26T01:46:00.223Z,51.212158
2023-03-26T01:47:00.262Z,51.212132
2023-03-26T01:48:00.263Z,51.212093
2023-03-26T01:49:00.211Z,51.212120
2023-03-26T01:50:00.218Z,51.212074
2023-03-26T01:51:00.214Z,51.212128
2023-03-26T01:52:00.180Z,51.212158
2023-03-26T01:53:00.215Z,51.212139
2023-03-26T01:54:00.210Z,51.212093
2023-03-26T01:55:00.182Z,51.212009
2023-03-26T01:56:00.214Z,51.212055
2023-03-26T01:57:00.328Z,51.212074
2023-03-26T01:58:00.155Z,51.212143
2023-03-26T01:59:00.158Z,51.212288
2023-03-26T02:00:00.176Z,51.212124
2023-03-26T02:01:00.433Z,51.212051
2023-03-26T02:02:00.258Z,51.211998
2023-03-26T02:03:00.222Z,51.212048
2023-03-26T02:04:00.132Z,51.211926
2023-03-26T02:05:00.153Z,51.211933
2023-03-26T02:06:00.146Z,51.211918
2023-03-26T02:07:00.105Z,51.211933
2023-03-26T02:08:00.102Z,51.211849
2023-03-26T02:09:00.108Z,51.211697
2023-03-26T02:10:00.160Z,51.211784
2023-03-26T02:11:00.113Z,51.211819
2023-03-26T02:12:00.113Z,51.211903
2023-03-26T02:13:00.069Z,51.211948
2023-03-26T02:14:00.055Z,51.212009
2023-03-26T02:15:00.041Z,51.212044
2023-03-26T02:16:00.114Z,51.212086
2023-03-26T02:17:00.036Z,51.212307
2023-03-26T02:18:00.140Z,51.212143
2023-03-26T02:19:00.024Z,51.212112
2023-03-26T02:20:00.031Z,51.211948
2023-03-26T02:21:00.031Z,51.211952
2023-03-26T02:22:00.068Z,51.211918
2023-03-26T02:22:59.999Z,51.211983
2023-03-26T02:23:59.992Z,51.211983
2023-03-26T02:24:59.981Z,51.211819
2023-03-26T02:26:00.140Z,51.211868
2023-03-26T02:26:59.974Z,51.211979
2023-03-26T02:27:59.969Z,51.211945
2023-03-26T02:28:59.955Z,51.211941
2023-03-26T02:29:59.960Z,51.212013
2023-03-26T02:30:59.962Z,51.212177
2023-03-26T02:32:00.055Z,51.211994
2023-03-26T02:33:00.969Z,51.212170
2023-03-26T02:33:59.937Z,51.212067
2023-03-26T02:34:59.993Z,51.211975
2023-03-26T02:36:00.022Z,51.211994
2023-03-26T02:36:59.922Z,51.212048
2023-03-26T02:37:59.933Z,51.211998
2023-03-26T02:38:59.890Z,51.211945
2023-03-26T02:39:59.895Z,51.211861
2023-03-26T02:40:59.900Z,51.212055
2023-03-26T02:41:59.891Z,51.211990
2023-03-26T02:42:59.883Z,51.211987
2023-03-26T02:43:59.866Z,51.211967
2023-03-26T02:44:59.877Z,51.211918
2023-03-26T02:45:59.944Z,51.211872
2023-03-26T02:46:59.840Z,51.212116
2023-03-26T02:47:59.922Z,51.212013
2023-03-26T02:48:59.857Z,51.212040
2023-03-26T02:49:59.837Z,51.212059
2023-03-26T02:50:59.822Z,51.212055
2023-03-26T02:51:59.814Z,51.212265
2023-03-26T02:52:59.814Z,51.211979
2023-03-26T02:53:59.822Z,51.212040
2023-03-26T02:54:59.820Z,51.212151
2023-03-26T02:55:59.792Z,51.212143
2023-03-26T02:56:59.793Z,51.212059
2023-03-26T02:57:59.804Z,51.212044
2023-03-26T02:58:59.814Z,51.212032
2023-03-26T02:59:59.776Z,51.212124
2023-03-26T03:00:59.794Z,51.212112
2023-03-26T03:01:59.825Z,51.212063
2023-03-26T03:02:59.830Z,51.212112
2023-03-26T03:03:59.813Z,51.212044
2023-03-26T03:04:59.738Z,51.212036
2023-03-26T03:05:59.758Z,51.212021
2023-03-26T03:06:59.783Z,51.212070
2023-03-26T03:07:59.727Z,51.212151
2023-03-26T03:08:59.743Z,51.212070
2023-03-26T03:09:59.731Z,51.212051
2023-03-26T03:10:59.723Z,51.212009
2023-03-26T03:11:59.718Z,51.212074
2023-03-26T03:12:59.737Z,51.212158
2023-03-26T03:13:59.696Z,51.212151
2023-03-26T03:14:59.688Z,51.212147
2023-03-26T03:15:59.675Z,51.212128
2023-03-26T03:16:59.694Z,51.212132
2023-03-26T03:17:59.723Z,51.212101
2023-03-26T03:18:59.681Z,51.212093
2023-03-26T03:19:59.735Z,51.211975
2023-03-26T03:20:59.645Z,51.211777
2023-03-26T03:21:59.647Z,51.211842
2023-03-26T03:22:59.664Z,51.212002
2023-03-26T03:24:00.134Z,51.212013
2023-03-26T03:24:59.636Z,51.212021
2023-03-26T03:25:59.736Z,51.211964
2023-03-26T03:26:59.635Z,51.211975
2023-03-26T03:27:59.612Z,51.211868
2023-03-26T03:28:59.670Z,51.211823
2023-03-26T03:29:59.608Z,51.211708
2023-03-26T03:30:59.627Z,51.211712
2023-03-26T03:31:59.629Z,51.211548
2023-03-26T03:32:59.613Z,51.211918
2023-03-26T03:33:59.575Z,51.211788
2023-03-26T03:34:59.602Z,51.211777
2023-03-26T03:35:59.610Z,51.212036
2023-03-26T03:36:59.577Z,51.211884
2023-03-26T03:37:59.558Z,51.211880
2023-03-26T03:38:59.541Z,51.211941
2023-03-26T03:39:59.549Z,51.211876
2023-03-26T03:40:59.528Z,51.211964
2023-03-26T03:41:59.553Z,51.211895
2023-03-26T03:42:59.551Z,51.211903
2023-03-26T03:43:59.515Z,51.211823
2023-03-26T03:44:59.550Z,51.211933
2023-03-26T03:45:59.515Z,51.211906
2023-03-26T03:46:59.501Z,51.212059
2023-03-26T03:47:59.520Z,51.212116
2023-03-26T03:48:59.517Z,51.212044
2023-03-26T03:49:59.471Z,51.211906
2023-03-26T03:50:59.496Z,51.211884
2023-03-26T03:51:59.458Z,51.211937
2023-03-26T03:52:59.473Z,51.211922
2023-03-26T03:53:59.472Z,51.211926
2023-03-26T03:54:59.453Z,51.212090
2023-03-26T03:55:59.450Z,51.211994
2023-03-26T03:56:59.552Z,51.211983
2023-03-26T03:57:59.450Z,51.211998
2023-03-26T03:58:59.428Z,51.212059
2023-03-26T03:59:59.463Z,51.212025
2023-03-26T04:00:59.413Z,51.211849
2023-03-26T04:01:59.430Z,51.211708
2023-03-26T04:02:59.465Z,51.211834
2023-03-26T04:03:59.547Z,51.212044
2023-03-26T04:04:59.401Z,51.212009
2023-03-26T04:05:59.400Z,51.212051
2023-03-26T04:06:59.376Z,51.212036
2023-03-26T04:07:59.369Z,51.212097
2023-03-26T04:08:59.421Z,51.212063
2023-03-26T04:09:59.359Z,51.211922
2023-03-26T04:10:59.351Z,51.211823
2023-03-26T04:11:59.360Z,51.211849
2023-03-26T04:12:59.345Z,51.211800
2023-03-26T04:13:59.341Z,51.211929
2023-03-26T04:14:59.334Z,51.211990
2023-03-26T04:15:59.549Z,51.211990
2023-03-26T04:16:59.329Z,51.211956
2023-03-26T04:17:59.316Z,51.211895
2023-03-26T04:18:59.329Z,51.211857
2023-03-26T04:19:59.302Z,51.211983
2023-03-26T04:20:59.296Z,51.212017
2023-03-26T04:21:59.273Z,51.211872
2023-03-26T04:22:59.276Z,51.211765
2023-03-26T04:23:59.304Z,51.211636
2023-03-26T04:24:59.258Z,51.211639
2023-03-26T04:25:59.262Z,51.211613
2023-03-26T04:26:59.249Z,51.211647
2023-03-26T04:27:59.245Z,51.211670
2023-03-26T04:28:59.237Z,51.211674
2023-03-26T04:29:59.253Z,51.211670
2023-03-26T04:30:59.285Z,51.211666
2023-03-26T04:31:59.230Z,51.211720
2023-03-26T04:32:59.249Z,51.211773
2023-03-26T04:33:59.215Z,51.211807
2023-03-26T04:34:59.303Z,51.212063
2023-03-26T04:35:59.250Z,51.212269
2023-03-26T04:36:59.228Z,51.212273
2023-03-26T04:37:59.200Z,51.212208
2023-03-26T04:38:59.179Z,51.212204
2023-03-26T04:39:59.215Z,51.212185
2023-03-26T04:40:59.196Z,51.212170
2023-03-26T04:41:59.175Z,51.212105
2023-03-26T04:42:59.165Z,51.212154
2023-03-26T04:43:59.165Z,51.212170
2023-03-26T04:44:59.158Z,51.212170
2023-03-26T04:45:59.175Z,51.212147
2023-03-26T04:46:59.199Z,51.212196
2023-03-26T04:47:59.195Z,51.212166
2023-03-26T04:48:59.117Z,51.212158
2023-03-26T04:49:59.133Z,51.212013
2023-03-26T04:50:59.129Z,51.212078
2023-03-26T04:51:59.137Z,51.212166
2023-03-26T04:52:59.116Z,51.212151
2023-03-26T04:53:59.104Z,51.212177
2023-03-26T04:54:59.131Z,51.212154
2023-03-26T04:55:59.078Z,51.212055
2023-03-26T04:56:59.117Z,51.212135
2023-03-26T04:57:59.138Z,51.212238
2023-03-26T04:58:59.065Z,51.212112
2023-03-26T04:59:59.064Z,51.212063
2023-03-26T05:00:59.085Z,51.212055
2023-03-26T05:02:00.146Z,51.212044
2023-03-26T05:02:59.035Z,51.211872
2023-03-26T05:03:59.088Z,51.212059
2023-03-26T05:04:59.025Z,51.211967
2023-03-26T05:05:59.090Z,51.212124
2023-03-26T05:07:00.028Z,51.212128
2023-03-26T05:07:59.050Z,51.212173
2023-03-26T05:08:59.017Z,51.212166
2023-03-26T05:09:58.998Z,51.212097
2023-03-26T05:10:59.003Z,51.212101
2023-03-26T05:11:59.017Z,51.212070
2023-03-26T05:12:59.832Z,51.212093
2023-03-26T05:13:59.028Z,51.212044
2023-03-26T05:14:58.987Z,51.212006
2023-03-26T05:15:58.999Z,51.212055
2023-03-26T05:16:58.964Z,51.212139
2023-03-26T05:17:59.055Z,51.212090
2023-03-26T05:18:58.976Z,51.212078
2023-03-26T05:19:58.979Z,51.212177
2023-03-26T05:20:58.949Z,51.212132
2023-03-26T05:21:58.920Z,51.212166
2023-03-26T05:22:58.924Z,51.212116
2023-03-26T05:23:58.925Z,51.212090
2023-03-26T05:24:58.917Z,51.212112
2023-03-26T05:25:58.912Z,51.212212
2023-03-26T05:26:58.928Z,51.212193
2023-03-26T05:27:58.900Z,51.212147
2023-03-26T05:28:58.907Z,51.212112
2023-03-26T05:29:58.940Z,51.212063
2023-03-26T05:30:58.887Z,51.212067
2023-03-26T05:31:58.876Z,51.212273
2023-03-26T05:32:58.973Z,51.212105
2023-03-26T05:33:58.853Z,51.212032
2023-03-26T05:34:58.853Z,51.212063
2023-03-26T05:35:58.930Z,51.212029
2023-03-26T05:36:58.835Z,51.211933
2023-03-26T05:37:58.830Z,51.212032
2023-03-26T05:38:58.854Z,51.211998
2023-03-26T05:39:58.829Z,51.211983
2023-03-26T05:40:58.829Z,51.211891
2023-03-26T05:41:58.808Z,51.211918
2023-03-26T05:42:58.827Z,51.211960
2023-03-26T05:43:58.801Z,51.211880
2023-03-26T05:44:58.794Z,51.211830
2023-03-26T05:45:58.798Z,51.212200
2023-03-26T05:46:58.785Z,51.212219
2023-03-26T05:47:58.813Z,51.212120
2023-03-26T05:48:58.769Z,51.212189
2023-03-26T05:49:58.757Z,51.212154
2023-03-26T05:50:58.764Z,51.211987
2023-03-26T05:51:58.771Z,51.212143
2023-03-26T05:52:58.758Z,51.212090
2023-03-26T05:53:58.747Z,51.212002
2023-03-26T05:54:58.771Z,51.212124
2023-03-26T05:55:58.766Z,51.212147
2023-03-26T05:56:58.778Z,51.211922
2023-03-26T05:57:58.709Z,51.212021
2023-03-26T05:58:58.719Z,51.211994
2023-03-26T05:59:58.718Z,51.211929
2023-03-26T06:00:58.720Z,51.211998
2023-03-26T06:01:58.691Z,51.212090
2023-03-26T06:02:58.848Z,51.212147
2023-03-26T06:03:58.774Z,51.212120
2023-03-26T06:04:58.701Z,51.212013
2023-03-26T06:05:58.694Z,51.212051
2023-03-26T06:06:58.694Z,51.212143
2023-03-26T06:07:58.672Z,51.212063
2023-03-26T06:09:01.548Z,51.212097
2023-03-26T06:09:58.639Z,51.212078
2023-03-26T06:10:58.644Z,51.212090
2023-03-26T06:12:33.673Z,51.212101
2023-03-26T06:13:33.654Z,51.212063
2023-03-26T06:13:58.670Z,51.211903
2023-03-26T06:14:58.616Z,51.212051
2023-03-26T06:15:58.710Z,51.212173
2023-03-26T06:16:58.611Z,51.211964
2023-03-26T06:17:58.633Z,51.211807
2023-03-26T06:18:58.676Z,51.211975
2023-03-26T06:19:58.592Z,51.211971
2023-03-26T06:20:58.605Z,51.211937
2023-03-26T06:21:58.557Z,51.211895
2023-03-26T06:22:58.574Z,51.211929
2023-03-26T06:23:58.571Z,51.211773
2023-03-26T06:24:58.578Z,51.211906
2023-03-26T06:25:58.521Z,51.211990
2023-03-26T06:26:59.532Z,51.212086
2023-03-26T06:27:58.543Z,51.211941
2023-03-26T06:28:58.597Z,51.211903
2023-03-26T06:29:58.552Z,51.211987
2023-03-26T06:30:58.524Z,51.212036
2023-03-26T06:32:09.201Z,51.212044
2023-03-26T06:33:00.560Z,51.211994
2023-03-26T06:33:58.530Z,51.211826
2023-03-26T06:34:58.576Z,51.211864
2023-03-26T06:35:58.540Z,51.211777
2023-03-26T06:36:58.503Z,51.211945
2023-03-26T06:37:58.609Z,51.212090
2023-03-26T06:38:58.470Z,51.211990
2023-03-26T06:39:58.480Z,51.212112
2023-03-26T06:40:58.464Z,51.212048
2023-03-26T06:41:58.450Z,51.212231
2023-03-26T06:43:08.342Z,51.212166
2023-03-26T06:43:59.452Z,51.212074
2023-03-26T06:44:58.434Z,51.212143
2023-03-26T06:45:58.501Z,51.212166
2023-03-26T06:46:58.472Z,51.212181
2023-03-26T06:47:58.416Z,51.212097
2023-03-26T06:48:58.429Z,51.212116
2023-03-26T06:49:58.460Z,51.212078
2023-03-26T06:51:38.559Z,51.212200
2023-03-26T06:51:59.540Z,51.212360
2023-03-26T06:52:58.459Z,51.212231
2023-03-26T06:53:58.467Z,51.212166
2023-03-26T06:54:58.439Z,51.212128
2023-03-26T06:55:58.436Z,51.212143
2023-03-26T06:56:58.434Z,51.212181
2023-03-26T06:57:58.422Z,51.212128
2023-03-26T06:58:58.475Z,51.212128
2023-03-26T06:59:59.611Z,51.212181
2023-03-26T07:00:58.497Z,51.212154
2023-03-26T07:01:58.395Z,51.212109
2023-03-26T07:02:58.352Z,51.212040
2023-03-26T07:03:59.828Z,51.212135
2023-03-26T07:04:58.309Z,51.212227
2023-03-26T07:05:58.320Z,51.212204
2023-03-26T07:06:58.293Z,51.212250
2023-03-26T07:07:58.332Z,51.212078
2023-03-26T07:08:58.278Z,51.212143
2023-03-26T07:09:58.271Z,51.212086
2023-03-26T07:10:58.309Z,51.212063
2023-03-26T07:11:58.304Z,51.211964
2023-03-26T07:12:58.274Z,51.212097
2023-03-26T07:13:58.250Z,51.212151
2023-03-26T07:15:00.351Z,51.212158
2023-03-26T07:15:58.319Z,51.212143
2023-03-26T07:16:58.242Z,51.212112
2023-03-26T07:17:58.277Z,51.212151
2023-03-26T07:18:58.233Z,51.212101
2023-03-26T07:19:58.228Z,51.212097
2023-03-26T07:20:58.200Z,51.211987
2023-03-26T07:21:58.197Z,51.212009
2023-03-26T07:22:58.196Z,51.212025
2023-03-26T07:23:58.213Z,51.212093
2023-03-26T07:24:58.166Z,51.212151
2023-03-26T07:25:58.198Z,51.212158
2023-03-26T07:26:58.149Z,51.212147
2023-03-26T07:27:58.189Z,51.212158
2023-03-26T07:29:03.626Z,51.212132
2023-03-26T07:30:00.137Z,51.212154
2023-03-26T07:30:58.123Z,51.212162
2023-03-26T07:31:58.165Z,51.212227
2023-03-26T07:32:58.149Z,51.212242
2023-03-26T07:33:58.116Z,51.212120
2023-03-26T07:34:58.088Z,51.212116
2023-03-26T07:35:58.202Z,51.212154
2023-03-26T07:36:58.099Z,51.212212
2023-03-26T07:37:58.074Z,51.212181
2023-03-26T07:38:58.095Z,51.212151
2023-03-26T07:39:58.819Z,51.212151
2023-03-26T07:40:58.061Z,51.212196
2023-03-26T07:41:58.079Z,51.212109
2023-03-26T07:42:58.060Z,51.212082
2023-03-26T07:43:58.074Z,51.212135
2023-03-26T07:44:58.017Z,51.212166
2023-03-26T07:45:58.048Z,51.212177
2023-03-26T07:46:58.033Z,51.212143
2023-03-26T07:47:58.073Z,51.212162
2023-03-26T07:48:58.013Z,51.212219
2023-03-26T07:49:58.036Z,51.212269
2023-03-26T07:50:58.343Z,51.212223
2023-03-26T07:51:57.984Z,51.212303
2023-03-26T07:52:58.045Z,51.212219
2023-03-26T07:53:57.963Z,51.212147
2023-03-26T07:54:58.147Z,51.212158
2023-03-26T07:55:57.979Z,51.212158
2023-03-26T07:56:59.141Z,51.212193
2023-03-26T07:57:58.932Z,51.212200
2023-03-26T07:58:58.925Z,51.212200
2023-03-26T07:59:58.903Z,51.212227
2023-03-26T08:00:57.950Z,51.212093
2023-03-26T08:01:57.971Z,51.212166
2023-03-26T08:02:58.036Z,51.212223
2023-03-26T08:03:58.039Z,51.212257
2023-03-26T08:04:57.970Z,51.212200
2023-03-26T08:05:57.891Z,51.212234
2023-03-26T08:06:57.931Z,51.212135
2023-03-26T08:07:57.919Z,51.212193
2023-03-26T08:08:57.875Z,51.212200
2023-03-26T08:09:57.864Z,51.212212
2023-03-26T08:10:58.061Z,51.212246
2023-03-26T08:11:57.878Z,51.212212
2023-03-26T08:12:57.862Z,51.212212
2023-03-26T08:13:57.857Z,51.212154
2023-03-26T08:14:57.897Z,51.212112
2023-03-26T08:15:58.550Z,51.212120
2023-03-26T08:16:57.882Z,51.212181
2023-03-26T08:17:58.057Z,51.212006
2023-03-26T08:18:57.807Z,51.211971
2023-03-26T08:19:57.803Z,51.212135
2023-03-26T08:20:57.785Z,51.212093
2023-03-26T08:21:57.797Z,51.212132
2023-03-26T08:22:58.354Z,51.212074
2023-03-26T08:23:57.811Z,51.212120
2023-03-26T08:24:57.772Z,51.212132
2023-03-26T08:25:57.767Z,51.212238
2023-03-26T08:26:57.809Z,51.212082
2023-03-26T08:27:57.786Z,51.212051
2023-03-26T08:28:57.772Z,51.212070
2023-03-26T08:29:57.789Z,51.212067
2023-03-26T08:30:58.043Z,51.211960
2023-03-26T08:31:57.707Z,51.212013
2023-03-26T08:32:57.741Z,51.211987
2023-03-26T08:33:57.690Z,51.212055
2023-03-26T08:34:57.695Z,51.212044
2023-03-26T08:35:57.789Z,51.212040
2023-03-26T08:36:57.684Z,51.211979
2023-03-26T08:37:57.674Z,51.212059
2023-03-26T08:38:57.652Z,51.212063
2023-03-26T08:39:57.665Z,51.212032
2023-03-26T08:40:58.937Z,51.212109
2023-03-26T08:41:57.664Z,51.212090
2023-03-26T08:42:57.667Z,51.212036
2023-03-26T08:43:57.678Z,51.212067
2023-03-26T08:44:57.622Z,51.212109
2023-03-26T08:45:57.620Z,51.212101
2023-03-26T08:46:57.608Z,51.212017
2023-03-26T08:47:57.607Z,51.212116
2023-03-26T08:48:57.636Z,51.212147
2023-03-26T08:49:57.607Z,51.212242
2023-03-26T08:50:57.802Z,51.212135
2023-03-26T08:51:57.658Z,51.211952
2023-03-26T08:52:59.102Z,51.212044
2023-03-26T08:53:57.587Z,51.212006
2023-03-26T08:54:57.549Z,51.212151
2023-03-26T08:55:57.541Z,51.212082
2023-03-26T08:56:57.668Z,51.211967
2023-03-26T08:57:57.525Z,51.212044
2023-03-26T08:58:57.606Z,51.211948
2023-03-26T08:59:59.695Z,51.211983
2023-03-26T09:00:57.608Z,51.211983
2023-03-26T09:01:57.550Z,51.212109
2023-03-26T09:02:57.553Z,51.212032
2023-03-26T09:03:57.510Z,51.212063
2023-03-26T09:04:57.602Z,51.211979
2023-03-26T09:05:57.470Z,51.212196
2023-03-26T09:06:57.503Z,51.212059
2023-03-26T09:07:57.493Z,51.211819
2023-03-26T09:08:57.446Z,51.211967
2023-03-26T09:09:57.477Z,51.211926
2023-03-26T09:10:57.563Z,51.212090
2023-03-26T09:11:57.459Z,51.212093
2023-03-26T09:12:57.491Z,51.212040
2023-03-26T09:13:57.515Z,51.212082
2023-03-26T09:14:57.437Z,51.212215
2023-03-26T09:15:57.506Z,51.212029
2023-03-26T09:16:57.397Z,51.212067
2023-03-26T09:17:58.144Z,51.212040
2023-03-26T09:18:58.593Z,51.211922
2023-03-26T09:19:57.382Z,51.212204
2023-03-26T09:20:57.745Z,51.211922
2023-03-26T09:21:57.391Z,51.211945
2023-03-26T09:22:57.409Z,51.212124
2023-03-26T09:23:57.392Z,51.212048
2023-03-26T09:24:57.357Z,51.211960
2023-03-26T09:25:57.364Z,51.212002
2023-03-26T09:26:57.364Z,51.211899
2023-03-26T09:27:57.356Z,51.211929
2023-03-26T09:28:57.330Z,51.211933
2023-03-26T09:29:57.369Z,51.212013
2023-03-26T09:30:57.405Z,51.212067
2023-03-26T09:31:57.377Z,51.211906
2023-03-26T09:32:57.314Z,51.211926
2023-03-26T09:33:57.352Z,51.212013
2023-03-26T09:34:57.300Z,51.211998
2023-03-26T09:35:57.368Z,51.212109
2023-03-26T09:36:57.342Z,51.212132
2023-03-26T09:37:58.089Z,51.212181
2023-03-26T09:38:57.396Z,51.212059
2023-03-26T09:39:58.364Z,51.212185
2023-03-26T09:40:57.444Z,51.212120
2023-03-26T09:41:57.302Z,51.212128
2023-03-26T09:42:57.262Z,51.212147
2023-03-26T09:43:57.235Z,51.212135
2023-03-26T09:44:57.228Z,51.212128
2023-03-26T09:45:57.252Z,51.212105
2023-03-26T09:46:57.225Z,51.212086
2023-03-26T09:47:57.206Z,51.212078
2023-03-26T09:48:57.248Z,51.212147
2023-03-26T09:49:57.181Z,51.212029
2023-03-26T09:50:57.505Z,51.211979
2023-03-26T09:51:57.180Z,51.212051
2023-03-26T09:52:57.304Z,51.212059
2023-03-26T09:53:57.174Z,51.211948
2023-03-26T09:54:57.164Z,51.212109
2023-03-26T09:55:57.312Z,51.212170
2023-03-26T09:56:57.257Z,51.212181
2023-03-26T09:57:57.175Z,51.212177
2023-03-26T09:58:57.172Z,51.212132
2023-03-26T09:59:57.152Z,51.212086
2023-03-26T10:00:57.444Z,51.212124
2023-03-26T10:01:57.158Z,51.212204
2023-03-26T10:02:57.168Z,51.212109
2023-03-26T10:03:57.190Z,51.212223
2023-03-26T10:04:57.104Z,51.212360
2023-03-26T10:05:57.072Z,51.212273
2023-03-26T10:06:57.085Z,51.212139
2023-03-26T10:07:57.062Z,51.212265
2023-03-26T10:08:57.076Z,51.212234
2023-03-26T10:09:57.058Z,51.212315
2023-03-26T10:10:57.255Z,51.212132
2023-03-26T10:11:57.204Z,51.212105
2023-03-26T10:13:05.042Z,51.212234
2023-03-26T10:13:59.075Z,51.212219
2023-03-26T10:14:57.007Z,51.212170
2023-03-26T10:15:57.113Z,51.212196
2023-03-26T10:16:57.119Z,51.212147
2023-03-26T10:17:57.018Z,51.212078
2023-03-26T10:18:57.052Z,51.212067
2023-03-26T10:19:56.990Z,51.211987
2023-03-26T10:20:57.082Z,51.212101
2023-03-26T10:21:56.965Z,51.212189
2023-03-26T10:22:57.041Z,51.212158
2023-03-26T10:23:56.993Z,51.212112
2023-03-26T10:24:56.975Z,51.212124
2023-03-26T10:25:56.919Z,51.212269
2023-03-26T10:27:09.861Z,51.212242
2023-03-26T10:27:57.918Z,51.212330
2023-03-26T10:28:56.924Z,51.212276
2023-03-26T10:29:57.098Z,51.212353
2023-03-26T10:30:57.278Z,51.212254
2023-03-26T10:31:57.000Z,51.212322
2023-03-26T10:32:57.098Z,51.212307
2023-03-26T10:33:56.876Z,51.212177
2023-03-26T10:34:56.884Z,51.212330
2023-03-26T10:35:57.807Z,51.212376
2023-03-26T10:36:56.859Z,51.212292
2023-03-26T10:37:56.894Z,51.212231
2023-03-26T10:38:56.831Z,51.212227
2023-03-26T10:39:56.895Z,51.212227
2023-03-26T10:40:56.973Z,51.212299
2023-03-26T10:41:56.826Z,51.212284
2023-03-26T10:42:56.892Z,51.212318
2023-03-26T10:44:07.379Z,51.212303
2023-03-26T10:44:58.802Z,51.212147
2023-03-26T10:45:56.836Z,51.212120
2023-03-26T10:46:56.794Z,51.212139
2023-03-26T10:47:56.815Z,51.212173
2023-03-26T10:48:56.768Z,51.212215
2023-03-26T10:49:56.877Z,51.212200
2023-03-26T10:50:56.945Z,51.212128
2023-03-26T10:51:56.764Z,51.212173
2023-03-26T10:52:56.764Z,51.212280
2023-03-26T10:53:56.760Z,51.212261
2023-03-26T10:54:56.752Z,51.212311
2023-03-26T10:55:56.730Z,51.212288
2023-03-26T10:56:56.792Z,51.212181
2023-03-26T10:57:56.804Z,51.212177
2023-03-26T10:58:56.698Z,51.212261
2023-03-26T10:59:56.773Z,51.212162
2023-03-26T11:00:56.876Z,51.212189
2023-03-26T11:01:56.722Z,51.212158
2023-03-26T11:02:56.706Z,51.212143
2023-03-26T11:03:56.693Z,51.212158
2023-03-26T11:04:56.721Z,51.212124
2023-03-26T11:05:56.732Z,51.212044
2023-03-26T11:06:56.636Z,51.212051
2023-03-26T11:07:56.774Z,51.212059
2023-03-26T11:08:56.691Z,51.212097
2023-03-26T11:09:56.769Z,51.212116
2023-03-26T11:10:56.817Z,51.212231
2023-03-26T11:11:56.633Z,51.212360
2023-03-26T11:12:56.679Z,51.212254
2023-03-26T11:13:56.844Z,51.212219
2023-03-26T11:14:56.712Z,51.212215
2023-03-26T11:15:56.593Z,51.212276
2023-03-26T11:16:56.568Z,51.212437
2023-03-26T11:17:56.623Z,51.212433
2023-03-26T11:18:56.570Z,51.212475
2023-03-26T11:19:56.570Z,51.212505
2023-03-26T11:20:56.785Z,51.212162
2023-03-26T11:21:57.569Z,51.212254
2023-03-26T11:22:56.547Z,51.212353
2023-03-26T11:24:05.394Z,51.212315